sensor_id;sensor_type;location;lat;lon;timestamp;P1;durP1;ratioP1;P2;durP2;ratioP2
70313;SDS011;71040;47.526;18.986;2023-07-13T00:03:29;5.27;;;2.60;;
70313;SDS011;71040;47.526;18.986;2023-07-13T00:08:35;3.75;;;2.80;;
70313;SDS011;71040;47.526;18.986;2023-07-13T00:13:35;3.08;;;2.53;;
70313;SDS011;71040;47.526;18.986;2023-07-13T00:18:39;3.00;;;2.70;;
70313;SDS011;71040;47.526;18.986;2023-07-13T00:23:44;2.88;;;2.63;;
70313;SDS011;71040;47.526;18.986;2023-07-13T00:28:45;4.63;;;3.00;;
70313;SDS011;71040;47.526;18.986;2023-07-13T00:33:45;4.07;;;2.57;;
70313;SDS011;71040;47.526;18.986;2023-07-13T00:38:48;3.60;;;2.60;;
70313;SDS011;71040;47.526;18.986;2023-07-13T00:43:56;3.57;;;2.93;;
70313;SDS011;71040;47.526;18.986;2023-07-13T00:48:57;2.67;;;1.88;;
70313;SDS011;71040;47.526;18.986;2023-07-13T00:54:07;3.55;;;2.65;;
70313;SDS011;71040;47.526;18.986;2023-07-13T00:59:11;3.97;;;3.03;;
70313;SDS011;71040;47.526;18.986;2023-07-13T01:04:13;2.60;;;2.20;;
70313;SDS011;71040;47.526;18.986;2023-07-13T01:09:16;3.30;;;2.05;;
70313;SDS011;71040;47.526;18.986;2023-07-13T01:14:17;3.28;;;2.05;;
70313;SDS011;71040;47.526;18.986;2023-07-13T01:19:35;3.23;;;2.37;;
70313;SDS011;71040;47.526;18.986;2023-07-13T01:24:42;3.42;;;2.30;;
70313;SDS011;71040;47.526;18.986;2023-07-13T01:29:46;3.40;;;2.47;;
70313;SDS011;71040;47.526;18.986;2023-07-13T01:34:50;3.03;;;2.40;;
70313;SDS011;71040;47.526;18.986;2023-07-13T01:39:54;6.23;;;2.80;;
70313;SDS011;71040;47.526;18.986;2023-07-13T01:44:58;3.70;;;2.47;;
70313;SDS011;71040;47.526;18.986;2023-07-13T01:50:02;2.75;;;2.13;;
70313;SDS011;71040;47.526;18.986;2023-07-13T01:55:02;2.70;;;1.80;;
70313;SDS011;71040;47.526;18.986;2023-07-13T02:00:06;2.38;;;1.88;;
70313;SDS011;71040;47.526;18.986;2023-07-13T02:05:08;2.95;;;1.90;;
70313;SDS011;71040;47.526;18.986;2023-07-13T02:10:09;2.03;;;1.73;;
70313;SDS011;71040;47.526;18.986;2023-07-13T02:15:13;2.50;;;1.60;;
70313;SDS011;71040;47.526;18.986;2023-07-13T02:20:17;3.03;;;1.40;;
70313;SDS011;71040;47.526;18.986;2023-07-13T02:25:22;3.13;;;1.60;;
70313;SDS011;71040;47.526;18.986;2023-07-13T02:30:25;2.03;;;1.45;;
70313;SDS011;71040;47.526;18.986;2023-07-13T02:35:28;2.87;;;1.50;;
70313;SDS011;71040;47.526;18.986;2023-07-13T02:40:28;1.30;;;0.93;;
70313;SDS011;71040;47.526;18.986;2023-07-13T02:45:28;1.50;;;1.17;;
70313;SDS011;71040;47.526;18.986;2023-07-13T02:50:29;1.83;;;0.90;;
70313;SDS011;71040;47.526;18.986;2023-07-13T02:55:29;1.63;;;0.87;;
70313;SDS011;71040;47.526;18.986;2023-07-13T03:00:32;2.70;;;1.80;;
70313;SDS011;71040;47.526;18.986;2023-07-13T03:05:41;1.63;;;1.02;;
70313;SDS011;71040;47.526;18.986;2023-07-13T03:10:45;1.33;;;0.85;;
70313;SDS011;71040;47.526;18.986;2023-07-13T03:15:48;1.00;;;0.60;;
70313;SDS011;71040;47.526;18.986;2023-07-13T03:20:52;1.45;;;0.88;;
70313;SDS011;71040;47.526;18.986;2023-07-13T03:26:03;1.95;;;0.98;;
70313;SDS011;71040;47.526;18.986;2023-07-13T03:31:10;1.93;;;0.83;;
70313;SDS011;71040;47.526;18.986;2023-07-13T03:36:19;1.07;;;0.70;;
70313;SDS011;71040;47.526;18.986;2023-07-13T03:41:28;1.80;;;1.17;;
70313;SDS011;71040;47.526;18.986;2023-07-13T03:46:29;1.30;;;0.80;;
70313;SDS011;71040;47.526;18.986;2023-07-13T03:51:36;1.35;;;1.10;;
70313;SDS011;71040;47.526;18.986;2023-07-13T03:56:37;1.20;;;0.80;;
70313;SDS011;71040;47.526;18.986;2023-07-13T04:01:42;1.38;;;0.70;;
70313;SDS011;71040;47.526;18.986;2023-07-13T04:06:45;1.50;;;0.98;;
70313;SDS011;71040;47.526;18.986;2023-07-13T04:11:48;1.60;;;0.90;;
70313;SDS011;71040;47.526;18.986;2023-07-13T04:16:52;1.25;;;0.90;;
70313;SDS011;71040;47.526;18.986;2023-07-13T04:21:54;1.27;;;0.68;;
70313;SDS011;71040;47.526;18.986;2023-07-13T04:26:56;1.95;;;0.82;;
70313;SDS011;71040;47.526;18.986;2023-07-13T04:31:59;2.42;;;1.10;;
70313;SDS011;71040;47.526;18.986;2023-07-13T04:36:59;1.43;;;0.60;;
70313;SDS011;71040;47.526;18.986;2023-07-13T04:42:00;1.37;;;0.73;;
70313;SDS011;71040;47.526;18.986;2023-07-13T04:47:05;1.48;;;0.70;;
70313;SDS011;71040;47.526;18.986;2023-07-13T04:52:05;2.00;;;0.88;;
70313;SDS011;71040;47.526;18.986;2023-07-13T04:57:09;1.15;;;0.52;;
70313;SDS011;71040;47.526;18.986;2023-07-13T05:02:10;1.57;;;0.97;;
70313;SDS011;71040;47.526;18.986;2023-07-13T05:07:10;1.77;;;0.70;;
70313;SDS011;71040;47.526;18.986;2023-07-13T05:12:13;1.42;;;0.70;;
70313;SDS011;71040;47.526;18.986;2023-07-13T05:17:16;1.02;;;0.77;;
70313;SDS011;71040;47.526;18.986;2023-07-13T05:22:21;1.88;;;0.75;;
70313;SDS011;71040;47.526;18.986;2023-07-13T05:27:24;2.38;;;1.02;;
70313;SDS011;71040;47.526;18.986;2023-07-13T05:32:24;1.20;;;0.73;;
70313;SDS011;71040;47.526;18.986;2023-07-13T05:37:25;1.90;;;0.90;;
70313;SDS011;71040;47.526;18.986;2023-07-13T05:42:25;1.27;;;0.70;;
70313;SDS011;71040;47.526;18.986;2023-07-13T05:47:27;2.03;;;0.73;;
70313;SDS011;71040;47.526;18.986;2023-07-13T05:52:33;1.33;;;0.70;;
70313;SDS011;71040;47.526;18.986;2023-07-13T05:57:33;1.70;;;0.80;;
70313;SDS011;71040;47.526;18.986;2023-07-13T06:02:33;1.23;;;0.77;;
70313;SDS011;71040;47.526;18.986;2023-07-13T06:07:34;2.83;;;0.60;;
70313;SDS011;71040;47.526;18.986;2023-07-13T06:12:40;1.45;;;0.90;;
70313;SDS011;71040;47.526;18.986;2023-07-13T06:17:41;1.17;;;0.50;;
70313;SDS011;71040;47.526;18.986;2023-07-13T06:22:43;1.50;;;0.60;;
70313;SDS011;71040;47.526;18.986;2023-07-13T06:27:46;1.57;;;0.53;;
70313;SDS011;71040;47.526;18.986;2023-07-13T06:32:47;1.73;;;0.85;;
70313;SDS011;71040;47.526;18.986;2023-07-13T06:37:49;2.70;;;0.60;;
70313;SDS011;71040;47.526;18.986;2023-07-13T06:42:50;1.63;;;0.70;;
70313;SDS011;71040;47.526;18.986;2023-07-13T06:47:50;1.43;;;0.90;;
70313;SDS011;71040;47.526;18.986;2023-07-13T06:52:53;1.55;;;0.50;;
70313;SDS011;71040;47.526;18.986;2023-07-13T06:57:58;1.83;;;0.40;;
70313;SDS011;71040;47.526;18.986;2023-07-13T07:03:10;2.10;;;0.80;;
70313;SDS011;71040;47.526;18.986;2023-07-13T07:08:13;1.10;;;0.50;;
70313;SDS011;71040;47.526;18.986;2023-07-13T07:13:14;2.08;;;0.77;;
70313;SDS011;71040;47.526;18.986;2023-07-13T07:18:15;4.13;;;0.60;;
70313;SDS011;71040;47.526;18.986;2023-07-13T07:23:15;1.73;;;0.80;;
70313;SDS011;71040;47.526;18.986;2023-07-13T07:28:18;2.20;;;0.57;;
70313;SDS011;71040;47.526;18.986;2023-07-13T07:33:22;2.03;;;0.75;;
70313;SDS011;71040;47.526;18.986;2023-07-13T07:38:25;1.55;;;0.98;;
70313;SDS011;71040;47.526;18.986;2023-07-13T07:43:28;1.45;;;0.80;;
70313;SDS011;71040;47.526;18.986;2023-07-13T07:48:28;1.33;;;0.60;;
70313;SDS011;71040;47.526;18.986;2023-07-13T07:53:29;0.80;;;0.60;;
70313;SDS011;71040;47.526;18.986;2023-07-13T07:58:30;2.20;;;0.60;;
70313;SDS011;71040;47.526;18.986;2023-07-13T08:03:37;1.23;;;0.70;;
70313;SDS011;71040;47.526;18.986;2023-07-13T08:08:37;1.83;;;0.53;;
70313;SDS011;71040;47.526;18.986;2023-07-13T08:13:42;2.03;;;0.93;;
70313;SDS011;71040;47.526;18.986;2023-07-13T08:18:45;1.00;;;0.63;;
70313;SDS011;71040;47.526;18.986;2023-07-13T08:23:46;2.42;;;0.93;;
70313;SDS011;71040;47.526;18.986;2023-07-13T08:28:46;0.90;;;0.60;;
70313;SDS011;71040;47.526;18.986;2023-07-13T08:33:47;1.50;;;0.73;;
70313;SDS011;71040;47.526;18.986;2023-07-13T08:38:50;1.10;;;0.60;;
70313;SDS011;71040;47.526;18.986;2023-07-13T08:43:54;1.27;;;0.60;;
70313;SDS011;71040;47.526;18.986;2023-07-13T08:49:05;2.55;;;0.68;;
70313;SDS011;71040;47.526;18.986;2023-07-13T08:54:26;2.63;;;0.93;;
70313;SDS011;71040;47.526;18.986;2023-07-13T08:59:31;1.08;;;0.68;;
70313;SDS011;71040;47.526;18.986;2023-07-13T09:04:41;1.83;;;0.70;;
70313;SDS011;71040;47.526;18.986;2023-07-13T09:15:21;1.80;;;0.90;;
70313;SDS011;71040;47.526;18.986;2023-07-13T09:20:50;1.80;;;0.68;;
70313;SDS011;71040;47.526;18.986;2023-07-13T09:26:01;1.48;;;0.70;;
70313;SDS011;71040;47.526;18.986;2023-07-13T09:31:10;1.23;;;0.80;;
70313;SDS011;71040;47.526;18.986;2023-07-13T09:36:35;0.93;;;0.70;;
70313;SDS011;71040;47.526;18.986;2023-07-13T09:46:54;2.03;;;1.10;;
70313;SDS011;71040;47.526;18.986;2023-07-13T09:52:04;1.60;;;0.90;;
70313;SDS011;71040;47.526;18.986;2023-07-13T09:57:17;1.90;;;0.80;;
70313;SDS011;71040;47.526;18.986;2023-07-13T10:02:27;1.10;;;0.93;;
70313;SDS011;71040;47.526;18.986;2023-07-13T10:07:32;3.07;;;0.97;;
70313;SDS011;71040;47.526;18.986;2023-07-13T10:12:40;2.17;;;0.90;;
70313;SDS011;71040;47.526;18.986;2023-07-13T10:17:43;1.92;;;1.40;;
70313;SDS011;71040;47.526;18.986;2023-07-13T10:22:55;1.63;;;1.00;;
70313;SDS011;71040;47.526;18.986;2023-07-13T10:28:00;2.10;;;1.10;;
70313;SDS011;71040;47.526;18.986;2023-07-13T10:33:08;4.03;;;1.23;;
70313;SDS011;71040;47.526;18.986;2023-07-13T10:38:15;1.47;;;1.00;;
70313;SDS011;71040;47.526;18.986;2023-07-13T10:43:23;3.20;;;1.10;;
70313;SDS011;71040;47.526;18.986;2023-07-13T10:48:27;5.10;;;1.07;;
70313;SDS011;71040;47.526;18.986;2023-07-13T10:53:36;2.17;;;1.15;;
70313;SDS011;71040;47.526;18.986;2023-07-13T10:58:38;1.48;;;1.10;;
70313;SDS011;71040;47.526;18.986;2023-07-13T11:03:50;1.25;;;1.02;;
70313;SDS011;71040;47.526;18.986;2023-07-13T11:08:59;2.15;;;1.40;;
70313;SDS011;71040;47.526;18.986;2023-07-13T11:19:40;2.30;;;0.83;;
70313;SDS011;71040;47.526;18.986;2023-07-13T11:24:52;1.58;;;1.20;;
70313;SDS011;71040;47.526;18.986;2023-07-13T11:35:28;1.88;;;0.90;;
70313;SDS011;71040;47.526;18.986;2023-07-13T11:40:29;1.90;;;0.90;;
70313;SDS011;71040;47.526;18.986;2023-07-13T11:45:30;2.05;;;0.90;;
70313;SDS011;71040;47.526;18.986;2023-07-13T11:50:31;1.53;;;1.27;;
70313;SDS011;71040;47.526;18.986;2023-07-13T11:55:31;2.97;;;1.10;;
70313;SDS011;71040;47.526;18.986;2023-07-13T12:00:34;2.45;;;1.20;;
70313;SDS011;71040;47.526;18.986;2023-07-13T12:05:38;1.00;;;0.70;;
70313;SDS011;71040;47.526;18.986;2023-07-13T12:11:02;2.28;;;1.10;;
70313;SDS011;71040;47.526;18.986;2023-07-13T12:21:31;2.78;;;1.20;;
70313;SDS011;71040;47.526;18.986;2023-07-13T12:26:36;2.47;;;1.00;;
70313;SDS011;71040;47.526;18.986;2023-07-13T12:31:40;1.30;;;0.80;;
70313;SDS011;71040;47.526;18.986;2023-07-13T12:36:55;1.85;;;1.23;;
70313;SDS011;71040;47.526;18.986;2023-07-13T12:42:13;2.10;;;1.00;;
70313;SDS011;71040;47.526;18.986;2023-07-13T12:47:24;1.20;;;1.05;;
70313;SDS011;71040;47.526;18.986;2023-07-13T12:52:29;2.10;;;1.00;;
70313;SDS011;71040;47.526;18.986;2023-07-13T12:57:41;1.88;;;1.20;;
70313;SDS011;71040;47.526;18.986;2023-07-13T13:02:49;1.30;;;0.85;;
70313;SDS011;71040;47.526;18.986;2023-07-13T13:07:53;1.40;;;0.77;;
70313;SDS011;71040;47.526;18.986;2023-07-13T13:12:53;2.10;;;1.00;;
70313;SDS011;71040;47.526;18.986;2023-07-13T13:17:54;2.43;;;1.00;;
70313;SDS011;71040;47.526;18.986;2023-07-13T13:22:54;1.40;;;1.00;;
70313;SDS011;71040;47.526;18.986;2023-07-13T13:27:57;2.80;;;1.15;;
70313;SDS011;71040;47.526;18.986;2023-07-13T13:32:57;1.60;;;1.08;;
70313;SDS011;71040;47.526;18.986;2023-07-13T13:37:58;2.03;;;1.50;;
70313;SDS011;71040;47.526;18.986;2023-07-13T13:42:58;3.87;;;1.30;;
70313;SDS011;71040;47.526;18.986;2023-07-13T13:47:59;3.27;;;1.30;;
70313;SDS011;71040;47.526;18.986;2023-07-13T13:52:59;1.10;;;1.00;;
70313;SDS011;71040;47.526;18.986;2023-07-13T13:58:02;3.50;;;1.50;;
70313;SDS011;71040;47.526;18.986;2023-07-13T14:03:03;2.10;;;1.30;;
70313;SDS011;71040;47.526;18.986;2023-07-13T14:08:09;2.20;;;1.50;;
70313;SDS011;71040;47.526;18.986;2023-07-13T14:13:18;1.33;;;0.90;;
70313;SDS011;71040;47.526;18.986;2023-07-13T14:18:23;1.30;;;1.15;;
70313;SDS011;71040;47.526;18.986;2023-07-13T14:23:26;1.88;;;1.27;;
70313;SDS011;71040;47.526;18.986;2023-07-13T14:28:31;2.25;;;1.20;;
70313;SDS011;71040;47.526;18.986;2023-07-13T14:33:34;1.52;;;1.30;;
70313;SDS011;71040;47.526;18.986;2023-07-13T14:38:37;2.53;;;1.15;;
70313;SDS011;71040;47.526;18.986;2023-07-13T14:43:37;2.75;;;1.45;;
70313;SDS011;71040;47.526;18.986;2023-07-13T14:48:38;1.70;;;1.20;;
70313;SDS011;71040;47.526;18.986;2023-07-13T14:53:43;2.00;;;1.10;;
70313;SDS011;71040;47.526;18.986;2023-07-13T14:58:43;1.23;;;1.02;;
70313;SDS011;71040;47.526;18.986;2023-07-13T15:03:45;1.43;;;1.20;;
70313;SDS011;71040;47.526;18.986;2023-07-13T15:08:50;1.60;;;1.20;;
70313;SDS011;71040;47.526;18.986;2023-07-13T15:13:51;1.30;;;1.07;;
70313;SDS011;71040;47.526;18.986;2023-07-13T15:18:52;1.60;;;1.17;;
70313;SDS011;71040;47.526;18.986;2023-07-13T15:23:52;1.58;;;1.17;;
70313;SDS011;71040;47.526;18.986;2023-07-13T15:28:56;1.55;;;1.45;;
70313;SDS011;71040;47.526;18.986;2023-07-13T15:33:59;1.52;;;1.33;;
70313;SDS011;71040;47.526;18.986;2023-07-13T15:39:02;1.85;;;1.52;;
70313;SDS011;71040;47.526;18.986;2023-07-13T15:44:22;1.20;;;1.00;;
70313;SDS011;71040;47.526;18.986;2023-07-13T15:49:27;1.92;;;1.33;;
70313;SDS011;71040;47.526;18.986;2023-07-13T15:54:27;2.30;;;1.30;;
70313;SDS011;71040;47.526;18.986;2023-07-13T15:59:28;1.58;;;1.30;;
70313;SDS011;71040;47.526;18.986;2023-07-13T16:04:28;1.73;;;1.20;;
70313;SDS011;71040;47.526;18.986;2023-07-13T16:09:31;1.30;;;1.00;;
70313;SDS011;71040;47.526;18.986;2023-07-13T16:14:32;1.50;;;1.17;;
70313;SDS011;71040;47.526;18.986;2023-07-13T16:19:32;1.90;;;1.20;;
70313;SDS011;71040;47.526;18.986;2023-07-13T16:24:33;1.33;;;0.82;;
70313;SDS011;71040;47.526;18.986;2023-07-13T16:29:36;1.20;;;1.03;;
70313;SDS011;71040;47.526;18.986;2023-07-13T16:34:39;2.03;;;1.27;;
70313;SDS011;71040;47.526;18.986;2023-07-13T16:39:47;1.73;;;1.25;;
70313;SDS011;71040;47.526;18.986;2023-07-13T16:44:53;1.65;;;1.20;;
70313;SDS011;71040;47.526;18.986;2023-07-13T16:49:54;2.08;;;1.45;;
70313;SDS011;71040;47.526;18.986;2023-07-13T16:54:57;2.25;;;1.05;;
70313;SDS011;71040;47.526;18.986;2023-07-13T17:00:00;1.10;;;1.00;;
70313;SDS011;71040;47.526;18.986;2023-07-13T17:05:03;1.35;;;0.95;;
70313;SDS011;71040;47.526;18.986;2023-07-13T17:10:06;1.08;;;0.95;;
70313;SDS011;71040;47.526;18.986;2023-07-13T17:15:19;1.45;;;0.90;;
70313;SDS011;71040;47.526;18.986;2023-07-13T17:20:23;1.23;;;1.00;;
70313;SDS011;71040;47.526;18.986;2023-07-13T17:25:26;1.40;;;1.08;;
70313;SDS011;71040;47.526;18.986;2023-07-13T17:30:27;1.42;;;1.20;;
70313;SDS011;71040;47.526;18.986;2023-07-13T17:35:33;2.20;;;1.00;;
70313;SDS011;71040;47.526;18.986;2023-07-13T17:40:35;1.20;;;0.88;;
70313;SDS011;71040;47.526;18.986;2023-07-13T17:45:35;1.90;;;1.17;;
70313;SDS011;71040;47.526;18.986;2023-07-13T17:50:36;0.90;;;0.70;;
70313;SDS011;71040;47.526;18.986;2023-07-13T17:55:36;1.50;;;1.20;;
70313;SDS011;71040;47.526;18.986;2023-07-13T18:00:39;1.35;;;1.02;;
70313;SDS011;71040;47.526;18.986;2023-07-13T18:05:42;1.15;;;0.93;;
70313;SDS011;71040;47.526;18.986;2023-07-13T18:10:43;1.05;;;0.80;;
70313;SDS011;71040;47.526;18.986;2023-07-13T18:15:46;1.00;;;0.80;;
70313;SDS011;71040;47.526;18.986;2023-07-13T18:20:46;1.27;;;0.95;;
70313;SDS011;71040;47.526;18.986;2023-07-13T18:25:47;1.30;;;1.02;;
70313;SDS011;71040;47.526;18.986;2023-07-13T18:30:58;1.25;;;0.82;;
70313;SDS011;71040;47.526;18.986;2023-07-13T18:36:02;1.33;;;0.75;;
70313;SDS011;71040;47.526;18.986;2023-07-13T18:41:13;1.73;;;1.20;;
70313;SDS011;71040;47.526;18.986;2023-07-13T18:46:21;1.83;;;1.13;;
70313;SDS011;71040;47.526;18.986;2023-07-13T18:51:27;1.33;;;1.02;;
70313;SDS011;71040;47.526;18.986;2023-07-13T18:56:28;1.27;;;0.90;;
70313;SDS011;71040;47.526;18.986;2023-07-13T19:06:31;3.65;;;1.33;;
70313;SDS011;71040;47.526;18.986;2023-07-13T19:11:31;1.43;;;0.90;;
70313;SDS011;71040;47.526;18.986;2023-07-13T19:21:39;1.00;;;0.80;;
70313;SDS011;71040;47.526;18.986;2023-07-13T19:26:41;1.08;;;0.80;;
70313;SDS011;71040;47.526;18.986;2023-07-13T19:31:41;1.70;;;1.02;;
70313;SDS011;71040;47.526;18.986;2023-07-13T19:36:46;0.98;;;0.52;;
70313;SDS011;71040;47.526;18.986;2023-07-13T19:42:15;4.70;;;1.52;;
70313;SDS011;71040;47.526;18.986;2023-07-13T19:47:18;2.97;;;1.25;;
70313;SDS011;71040;47.526;18.986;2023-07-13T19:52:22;2.65;;;1.20;;
70313;SDS011;71040;47.526;18.986;2023-07-13T19:57:28;1.50;;;1.10;;
70313;SDS011;71040;47.526;18.986;2023-07-13T20:07:36;1.67;;;1.25;;
70313;SDS011;71040;47.526;18.986;2023-07-13T20:12:42;1.42;;;1.05;;
70313;SDS011;71040;47.526;18.986;2023-07-13T20:17:49;1.10;;;0.95;;
70313;SDS011;71040;47.526;18.986;2023-07-13T20:22:54;1.60;;;1.10;;
70313;SDS011;71040;47.526;18.986;2023-07-13T20:27:55;1.85;;;1.25;;
70313;SDS011;71040;47.526;18.986;2023-07-13T20:33:07;1.05;;;0.80;;
70313;SDS011;71040;47.526;18.986;2023-07-13T20:38:15;2.28;;;1.02;;
70313;SDS011;71040;47.526;18.986;2023-07-13T20:43:19;6.00;;;1.08;;
70313;SDS011;71040;47.526;18.986;2023-07-13T20:53:29;1.73;;;1.05;;
70313;SDS011;71040;47.526;18.986;2023-07-13T20:58:29;1.80;;;1.02;;
70313;SDS011;71040;47.526;18.986;2023-07-13T21:03:29;1.73;;;1.00;;
70313;SDS011;71040;47.526;18.986;2023-07-13T21:08:33;1.33;;;0.98;;
70313;SDS011;71040;47.526;18.986;2023-07-13T21:13:34;1.83;;;0.80;;
70313;SDS011;71040;47.526;18.986;2023-07-13T21:18:36;1.10;;;0.90;;
70313;SDS011;71040;47.526;18.986;2023-07-13T21:23:38;2.03;;;1.00;;
70313;SDS011;71040;47.526;18.986;2023-07-13T21:28:46;2.27;;;1.20;;
70313;SDS011;71040;47.526;18.986;2023-07-13T21:33:48;1.15;;;0.98;;
70313;SDS011;71040;47.526;18.986;2023-07-13T21:38:54;1.40;;;1.08;;
70313;SDS011;71040;47.526;18.986;2023-07-13T21:44:28;3.55;;;1.40;;
70313;SDS011;71040;47.526;18.986;2023-07-13T21:49:30;1.35;;;1.20;;
70313;SDS011;71040;47.526;18.986;2023-07-13T21:54:33;2.05;;;1.42;;
70313;SDS011;71040;47.526;18.986;2023-07-13T21:59:33;1.93;;;1.30;;
70313;SDS011;71040;47.526;18.986;2023-07-13T22:04:34;1.85;;;1.10;;
70313;SDS011;71040;47.526;18.986;2023-07-13T22:09:37;2.80;;;1.10;;
70313;SDS011;71040;47.526;18.986;2023-07-13T22:14:37;1.38;;;1.00;;
70313;SDS011;71040;47.526;18.986;2023-07-13T22:19:37;1.40;;;1.10;;
70313;SDS011;71040;47.526;18.986;2023-07-13T22:24:40;1.70;;;1.20;;
70313;SDS011;71040;47.526;18.986;2023-07-13T22:29:40;1.83;;;1.35;;
70313;SDS011;71040;47.526;18.986;2023-07-13T22:34:41;1.43;;;1.10;;
70313;SDS011;71040;47.526;18.986;2023-07-13T22:39:44;1.35;;;1.08;;
70313;SDS011;71040;47.526;18.986;2023-07-13T22:44:45;1.60;;;0.95;;
70313;SDS011;71040;47.526;18.986;2023-07-13T22:49:47;2.17;;;0.85;;
70313;SDS011;71040;47.526;18.986;2023-07-13T22:54:50;2.00;;;1.35;;
70313;SDS011;71040;47.526;18.986;2023-07-13T22:59:53;2.67;;;1.35;;
70313;SDS011;71040;47.526;18.986;2023-07-13T23:04:53;19.23;;;3.42;;
70313;SDS011;71040;47.526;18.986;2023-07-13T23:09:53;1.47;;;0.90;;
70313;SDS011;71040;47.526;18.986;2023-07-13T23:14:54;2.57;;;1.27;;
70313;SDS011;71040;47.526;18.986;2023-07-13T23:19:56;1.73;;;1.30;;
70313;SDS011;71040;47.526;18.986;2023-07-13T23:24:57;1.47;;;1.20;;
70313;SDS011;71040;47.526;18.986;2023-07-13T23:29:57;2.03;;;1.27;;
70313;SDS011;71040;47.526;18.986;2023-07-13T23:35:00;1.70;;;1.37;;
70313;SDS011;71040;47.526;18.986;2023-07-13T23:40:04;1.15;;;0.90;;
70313;SDS011;71040;47.526;18.986;2023-07-13T23:45:16;1.40;;;1.20;;
70313;SDS011;71040;47.526;18.986;2023-07-13T23:50:28;1.63;;;1.00;;
70313;SDS011;71040;47.526;18.986;2023-07-13T23:55:33;1.60;;;1.27;;
